createdAt,value
2023-01-21T00:01:14.975Z,28.58
2023-01-21T00:03:43.123Z,29.13
2023-01-21T00:06:12.336Z,29.35
2023-01-21T00:08:39.692Z,29.30
2023-01-21T00:11:15.499Z,30.30
2023-01-21T00:13:43.621Z,29.45
2023-01-21T00:16:12.652Z,31.00
2023-01-21T00:18:40.050Z,26.95
2023-01-21T00:21:07.707Z,32.65
2023-01-21T00:23:35.136Z,29.35
2023-01-21T00:26:05.462Z,28.08
2023-01-21T00:28:34.433Z,29.33
2023-01-21T00:31:04.026Z,30.63
2023-01-21T00:33:32.226Z,29.63
2023-01-21T00:36:22.314Z,30.27
2023-01-21T00:38:49.619Z,28.48
2023-01-21T00:41:18.021Z,28.02
2023-01-21T00:43:45.449Z,27.63
2023-01-21T00:46:12.989Z,28.05
2023-01-21T00:48:40.691Z,28.30
2023-01-21T00:51:08.553Z,28.70
2023-01-21T00:53:38.657Z,29.33
2023-01-21T00:56:08.172Z,28.33
2023-01-21T00:58:39.045Z,34.05
2023-01-21T01:01:09.479Z,29.70
2023-01-21T01:03:37.919Z,30.35
2023-01-21T01:06:11.371Z,28.80
2023-01-21T01:08:38.814Z,26.98
2023-01-21T01:11:06.491Z,25.50
2023-01-21T01:13:35.651Z,25.23
2023-01-21T01:16:03.489Z,25.27
2023-01-21T01:18:33.720Z,25.67
2023-01-21T01:21:01.793Z,24.65
2023-01-21T01:23:29.357Z,26.13
2023-01-21T01:26:01.876Z,25.27
2023-01-21T01:28:30.398Z,24.30
2023-01-21T01:30:58.576Z,24.38
2023-01-21T01:33:27.036Z,24.60
2023-01-21T01:35:54.542Z,23.85
2023-01-21T01:38:23.449Z,24.35
2023-01-21T01:40:52.660Z,23.63
2023-01-21T01:43:23.059Z,22.75
2023-01-21T01:45:50.944Z,22.88
2023-01-21T01:48:29.983Z,21.15
2023-01-21T01:51:01.939Z,20.40
2023-01-21T01:53:32.316Z,21.30
2023-01-21T01:56:00.541Z,21.33
2023-01-21T01:58:29.501Z,21.23
2023-01-21T02:00:57.672Z,19.25
2023-01-21T02:03:45.396Z,21.33
2023-01-21T02:06:14.046Z,20.98
2023-01-21T02:08:42.821Z,22.40
2023-01-21T02:11:18.639Z,20.25
2023-01-21T02:13:50.593Z,20.05
2023-01-21T02:16:59.515Z,19.95
2023-01-21T02:20:09.901Z,19.90
2023-01-21T02:23:04.369Z,20.48
2023-01-21T02:25:46.660Z,18.63
2023-01-21T02:28:41.852Z,19.13
2023-01-21T02:31:37.124Z,20.85
2023-01-21T02:34:08.875Z,20.13
2023-01-21T02:36:56.542Z,19.88
2023-01-21T02:39:34.022Z,19.27
2023-01-21T02:42:18.286Z,20.88
2023-01-21T02:45:09.751Z,21.02
2023-01-21T02:48:06.181Z,20.70
2023-01-21T02:50:50.719Z,20.95
2023-01-21T02:53:31.305Z,21.73
2023-01-21T02:56:05.946Z,20.92
2023-01-21T02:58:37.088Z,20.52
2023-01-21T03:01:17.827Z,20.35
2023-01-21T03:04:11.170Z,20.50
2023-01-21T03:07:01.599Z,20.27
2023-01-21T03:09:31.833Z,19.75
2023-01-21T03:12:13.908Z,20.05
2023-01-21T03:15:13.350Z,19.92
2023-01-21T03:17:46.759Z,19.98
2023-01-21T03:20:37.133Z,20.98
2023-01-21T03:23:09.982Z,22.38
2023-01-21T03:25:38.457Z,21.48
2023-01-21T03:28:10.791Z,21.13
2023-01-21T03:30:43.503Z,20.80
2023-01-21T03:33:14.295Z,19.70
2023-01-21T03:35:45.586Z,20.90
2023-01-21T03:38:24.817Z,21.02
2023-01-21T03:40:58.714Z,19.92
2023-01-21T03:43:25.979Z,20.52
2023-01-21T03:46:07.223Z,20.95
2023-01-21T03:48:49.026Z,21.23
2023-01-21T03:51:20.803Z,20.83
2023-01-21T03:56:19.622Z,20.88
2023-01-21T03:58:46.818Z,20.15
2023-01-21T04:01:14.214Z,21.05
2023-01-21T04:03:43.518Z,20.27
2023-01-21T04:06:22.099Z,20.67
2023-01-21T04:08:49.613Z,19.77
2023-01-21T04:11:17.569Z,20.52
2023-01-21T04:13:44.945Z,19.90
2023-01-21T04:16:12.193Z,19.60
2023-01-21T04:18:39.467Z,20.10
2023-01-21T04:21:06.791Z,19.80
2023-01-21T04:23:34.120Z,20.05
2023-01-21T04:26:01.420Z,20.55
2023-01-21T04:28:28.710Z,20.48
2023-01-21T04:30:55.957Z,21.45
2023-01-21T04:33:23.269Z,20.58
2023-01-21T04:35:50.631Z,21.88
2023-01-21T04:38:18.303Z,21.33
2023-01-21T04:40:45.509Z,21.30
2023-01-21T04:43:13.161Z,21.20
2023-01-21T04:45:40.455Z,23.08
2023-01-21T04:48:07.960Z,23.60
2023-01-21T04:50:35.568Z,22.67
2023-01-21T04:53:02.842Z,23.30
2023-01-21T04:55:30.218Z,23.70
2023-01-21T04:57:57.438Z,21.63
2023-01-21T05:00:24.878Z,22.02
2023-01-21T05:02:52.330Z,23.52
2023-01-21T05:05:20.024Z,23.77
2023-01-21T05:07:47.515Z,22.33
2023-01-21T05:10:18.885Z,24.35
2023-01-21T05:12:46.348Z,22.52
2023-01-21T05:15:13.647Z,22.17
2023-01-21T05:17:40.908Z,23.48
2023-01-21T05:20:09.115Z,23.45
2023-01-21T05:22:36.296Z,22.38
2023-01-21T05:25:03.952Z,23.65
2023-01-21T05:27:31.394Z,24.00
2023-01-21T05:29:58.961Z,22.65
2023-01-21T05:32:26.315Z,24.05
2023-01-21T05:34:53.587Z,22.83
2023-01-21T05:37:20.799Z,24.23
2023-01-21T05:39:48.120Z,22.88
2023-01-21T05:42:15.322Z,24.15
2023-01-21T05:44:42.584Z,25.17
2023-01-21T05:47:09.864Z,22.52
2023-01-21T05:49:37.189Z,23.05
2023-01-21T05:52:04.666Z,22.77
2023-01-21T05:54:31.908Z,23.83
2023-01-21T05:56:59.186Z,24.02
2023-01-21T05:59:26.407Z,21.85
2023-01-21T06:01:53.678Z,23.60
2023-01-21T06:04:23.767Z,23.95
2023-01-21T06:06:51.109Z,22.85
2023-01-21T06:09:18.364Z,23.08
2023-01-21T06:11:45.669Z,23.27
2023-01-21T06:14:12.889Z,22.58
2023-01-21T06:16:40.225Z,23.63
2023-01-21T06:19:07.513Z,22.58
2023-01-21T06:21:34.681Z,21.90
2023-01-21T06:24:02.707Z,22.30
2023-01-21T06:26:29.999Z,22.10
2023-01-21T06:28:57.691Z,22.70
2023-01-21T06:31:25.098Z,21.23
2023-01-21T06:33:52.560Z,21.42
2023-01-21T06:36:19.763Z,22.83
2023-01-21T06:38:46.984Z,23.10
2023-01-21T06:41:14.246Z,22.30
2023-01-21T06:43:41.474Z,22.67
2023-01-21T06:46:08.758Z,23.17
2023-01-21T06:48:36.147Z,23.98
2023-01-21T06:51:03.643Z,22.88
2023-01-21T06:53:30.939Z,22.40
2023-01-21T06:55:58.105Z,22.02
2023-01-21T06:58:25.295Z,22.92
2023-01-21T07:00:55.550Z,23.13
2023-01-21T07:03:22.948Z,22.98
2023-01-21T07:05:50.167Z,21.75
2023-01-21T07:08:17.512Z,21.33
2023-01-21T07:10:47.579Z,21.95
2023-01-21T07:13:15.101Z,22.70
2023-01-21T07:15:42.447Z,22.05
2023-01-21T07:18:09.694Z,20.63
2023-01-21T07:20:40.772Z,21.30
2023-01-21T07:23:08.384Z,21.42
2023-01-21T07:25:37.593Z,21.08
2023-01-21T07:28:04.995Z,21.60
2023-01-21T07:30:32.183Z,20.33
2023-01-21T07:33:05.853Z,22.80
2023-01-21T07:35:33.141Z,21.80
2023-01-21T07:38:00.652Z,22.38
2023-01-21T07:40:27.883Z,21.10
2023-01-21T07:42:56.021Z,21.83
2023-01-21T07:45:23.960Z,20.75
2023-01-21T07:47:51.360Z,19.95
2023-01-21T07:50:18.778Z,19.20
2023-01-21T07:52:46.014Z,20.45
2023-01-21T07:55:13.261Z,19.48
2023-01-21T07:57:40.632Z,19.33
2023-01-21T08:00:08.463Z,20.75
2023-01-21T08:02:39.548Z,20.67
2023-01-21T08:05:07.795Z,20.63
2023-01-21T08:07:35.111Z,19.33
2023-01-21T08:10:02.728Z,19.23
2023-01-21T08:12:30.208Z,20.40
2023-01-21T08:14:57.567Z,20.42
2023-01-21T08:17:24.833Z,19.15
2023-01-21T08:19:52.106Z,18.63
2023-01-21T08:22:19.311Z,17.88
2023-01-21T08:24:46.666Z,20.50
2023-01-21T08:27:13.986Z,18.95
2023-01-21T08:29:41.253Z,19.33
2023-01-21T08:32:08.487Z,19.65
2023-01-21T08:34:35.824Z,18.90
2023-01-21T08:37:03.036Z,17.45
2023-01-21T08:39:30.282Z,18.10
2023-01-21T08:41:57.499Z,18.13
2023-01-21T08:44:24.718Z,17.95
2023-01-21T08:46:52.112Z,18.00
2023-01-21T08:49:19.335Z,18.50
2023-01-21T08:51:47.179Z,17.77
2023-01-21T08:54:14.675Z,18.17
2023-01-21T08:56:41.951Z,17.02
2023-01-21T08:59:09.464Z,18.05
2023-01-21T09:01:41.043Z,16.17
2023-01-21T09:04:09.454Z,16.77
2023-01-21T09:06:36.913Z,17.88
2023-01-21T09:09:04.234Z,17.30
2023-01-21T09:11:31.562Z,16.75
2023-01-21T09:14:03.552Z,17.27
2023-01-21T09:16:34.068Z,15.20
2023-01-21T09:19:01.848Z,15.85
2023-01-21T09:21:34.727Z,16.42
2023-01-21T09:24:02.878Z,15.50
2023-01-21T09:26:30.060Z,15.88
2023-01-21T09:28:59.622Z,16.40
2023-01-21T09:31:28.515Z,15.57
2023-01-21T09:34:02.652Z,15.90
2023-01-21T09:36:35.032Z,15.18
2023-01-21T09:39:02.954Z,16.90
2023-01-21T09:41:44.393Z,14.90
2023-01-21T09:44:32.776Z,15.50
2023-01-21T09:47:24.374Z,14.75
2023-01-21T09:49:54.110Z,16.90
2023-01-21T09:52:30.381Z,16.77
2023-01-21T09:54:58.884Z,16.50
2023-01-21T09:57:29.206Z,14.90
2023-01-21T10:00:35.350Z,14.38
2023-01-21T10:03:19.905Z,10.68
2023-01-21T10:05:53.296Z,9.15
2023-01-21T10:08:42.018Z,9.95
2023-01-21T10:11:27.313Z,9.25
2023-01-21T10:14:12.792Z,9.00
2023-01-21T10:16:54.411Z,9.80
2023-01-21T10:19:28.449Z,9.63
2023-01-21T10:22:13.264Z,8.98
2023-01-21T10:25:06.447Z,8.48
2023-01-21T10:27:37.510Z,8.07
2023-01-21T10:30:23.913Z,9.17
2023-01-21T10:32:54.417Z,8.35
2023-01-21T10:35:46.657Z,8.73
2023-01-21T10:41:03.455Z,8.70
2023-01-21T10:44:09.705Z,8.82
2023-01-21T10:46:48.691Z,9.15
2023-01-21T10:49:29.811Z,9.65
2023-01-21T10:52:24.410Z,9.70
2023-01-21T10:55:02.970Z,9.63
2023-01-21T10:57:39.576Z,10.57
2023-01-21T11:00:26.907Z,9.63
2023-01-21T11:02:58.992Z,10.15
2023-01-21T11:05:27.031Z,8.95
2023-01-21T11:07:55.475Z,15.45
2023-01-21T11:10:26.232Z,8.93
2023-01-21T11:12:57.073Z,9.18
2023-01-21T11:15:24.623Z,9.07
2023-01-21T11:17:56.758Z,9.05
2023-01-21T11:20:40.832Z,7.90
2023-01-21T11:23:32.100Z,8.23
2023-01-21T11:26:21.767Z,8.73
2023-01-21T11:28:49.007Z,9.27
2023-01-21T11:31:24.903Z,8.55
2023-01-21T11:33:53.006Z,8.73
2023-01-21T11:36:21.777Z,8.48
2023-01-21T11:39:05.073Z,8.80
2023-01-21T11:41:33.497Z,8.10
2023-01-21T11:44:34.032Z,7.35
2023-01-21T11:47:01.606Z,7.25
2023-01-21T11:49:32.127Z,7.55
2023-01-21T11:52:17.705Z,7.97
2023-01-21T11:54:45.975Z,7.47
2023-01-21T11:57:32.277Z,7.95
2023-01-21T12:00:09.253Z,7.57
2023-01-21T12:02:44.591Z,7.40
2023-01-21T12:05:17.359Z,7.55
2023-01-21T12:07:50.807Z,7.25
2023-01-21T12:10:31.271Z,7.03
2023-01-21T12:13:04.261Z,8.07
2023-01-21T12:15:40.517Z,7.35
2023-01-21T12:18:13.712Z,7.55
2023-01-21T12:21:01.694Z,7.45
2023-01-21T12:24:00.131Z,8.43
2023-01-21T12:26:45.593Z,7.45
2023-01-21T12:29:46.266Z,7.95
2023-01-21T12:32:37.471Z,7.18
2023-01-21T12:35:14.148Z,7.70
2023-01-21T12:37:51.413Z,7.70
2023-01-21T12:40:32.915Z,7.03
2023-01-21T12:43:13.273Z,7.15
2023-01-21T12:45:48.747Z,7.38
2023-01-21T12:48:26.310Z,8.90
2023-01-21T12:51:07.334Z,8.35
2023-01-21T12:54:04.577Z,7.70
2023-01-21T12:56:50.230Z,7.78
2023-01-21T12:59:19.939Z,8.00
2023-01-21T13:01:58.855Z,8.15
2023-01-21T13:04:57.941Z,7.50
2023-01-21T13:07:50.060Z,8.27
2023-01-21T13:13:15.543Z,7.65
2023-01-21T13:15:45.663Z,8.23
2023-01-21T13:18:22.747Z,8.10
2023-01-21T13:20:58.538Z,7.93
2023-01-21T13:23:39.207Z,7.95
2023-01-21T13:26:31.452Z,7.35
2023-01-21T13:29:18.688Z,8.52
2023-01-21T13:31:55.124Z,8.60
2023-01-21T13:34:48.913Z,8.75
2023-01-21T13:37:22.308Z,8.02
2023-01-21T13:40:08.475Z,8.68
2023-01-21T13:42:48.790Z,8.50
2023-01-21T13:45:21.975Z,8.75
2023-01-21T13:48:11.064Z,8.70
2023-01-21T13:50:59.940Z,9.00
2023-01-21T13:54:00.547Z,9.13
2023-01-21T13:56:49.788Z,8.98
2023-01-21T13:59:25.326Z,9.27
2023-01-21T14:02:28.536Z,9.32
2023-01-21T14:05:30.681Z,8.77
2023-01-21T14:08:08.143Z,10.43
2023-01-21T14:10:43.414Z,9.13
2023-01-21T14:13:45.858Z,9.55
2023-01-21T14:16:22.607Z,10.25
2023-01-21T14:18:52.729Z,10.70
2023-01-21T14:21:44.180Z,10.80
2023-01-21T14:24:11.512Z,11.20
2023-01-21T14:27:15.043Z,10.60
2023-01-21T14:29:48.480Z,10.13
2023-01-21T14:32:15.701Z,10.50
2023-01-21T14:34:53.096Z,10.05
2023-01-21T14:37:37.469Z,10.05
2023-01-21T14:40:28.436Z,10.43
2023-01-21T14:42:55.809Z,10.50
2023-01-21T14:45:44.219Z,10.73
2023-01-21T14:48:55.841Z,10.63
2023-01-21T14:51:23.404Z,11.20
2023-01-21T14:53:56.997Z,10.50
2023-01-21T14:56:33.275Z,10.38
2023-01-21T14:59:06.336Z,10.05
2023-01-21T15:02:03.573Z,10.38
2023-01-21T15:04:41.394Z,10.32
2023-01-21T15:07:18.755Z,9.70
2023-01-21T15:09:57.780Z,9.65
2023-01-21T15:12:31.334Z,9.18
2023-01-21T15:15:04.503Z,10.07
2023-01-21T15:17:53.465Z,9.18
2023-01-21T15:20:39.819Z,10.18
2023-01-21T15:23:19.396Z,9.35
2023-01-21T15:26:09.330Z,9.90
2023-01-21T15:28:53.751Z,10.30
2023-01-21T15:31:21.512Z,9.13
2023-01-21T15:34:01.641Z,9.90
2023-01-21T15:36:35.570Z,9.60
2023-01-21T15:39:13.028Z,9.60
2023-01-21T15:42:02.959Z,10.38
2023-01-21T15:44:59.036Z,10.43
2023-01-21T15:47:39.942Z,10.05
2023-01-21T15:50:36.205Z,10.77
2023-01-21T15:53:37.173Z,10.35
2023-01-21T15:56:25.593Z,10.38
2023-01-21T15:59:30.351Z,10.63
2023-01-21T16:02:21.417Z,11.80
2023-01-21T16:05:12.742Z,10.68
2023-01-21T16:08:07.942Z,13.00
2023-01-21T16:10:55.998Z,11.93
2023-01-21T16:13:44.695Z,13.57
2023-01-21T16:16:39.603Z,12.80
2023-01-21T16:19:30.563Z,12.38
2023-01-21T16:22:03.144Z,11.80
2023-01-21T16:24:32.684Z,12.77
2023-01-21T16:27:28.603Z,12.10
2023-01-21T16:30:07.439Z,12.00
2023-01-21T16:32:37.260Z,13.10
2023-01-21T16:35:05.831Z,12.05
2023-01-21T16:37:33.705Z,13.32
2023-01-21T16:40:10.530Z,13.20
2023-01-21T16:42:41.513Z,13.45
2023-01-21T16:45:26.135Z,13.23
2023-01-21T16:47:59.047Z,13.63
2023-01-21T16:50:28.714Z,13.55
2023-01-21T16:52:57.638Z,13.93
2023-01-21T16:55:31.042Z,13.75
2023-01-21T16:57:59.675Z,13.15
2023-01-21T17:00:33.324Z,14.05
2023-01-21T17:03:01.582Z,13.27
2023-01-21T17:05:32.941Z,13.98
2023-01-21T17:08:03.339Z,13.18
2023-01-21T17:10:39.196Z,12.70
2023-01-21T17:13:15.707Z,14.00
2023-01-21T17:16:03.699Z,13.27
2023-01-21T17:18:33.085Z,14.20
2023-01-21T17:21:09.779Z,13.20
2023-01-21T17:23:49.109Z,13.75
2023-01-21T17:26:42.058Z,14.05
2023-01-21T17:29:26.418Z,14.20
2023-01-21T17:32:22.750Z,13.30
2023-01-21T17:35:11.243Z,13.65
2023-01-21T17:38:00.722Z,13.30
2023-01-21T17:40:45.490Z,14.35
2023-01-21T17:43:21.048Z,13.93
2023-01-21T17:45:50.230Z,13.30
2023-01-21T17:48:45.341Z,14.88
2023-01-21T17:51:16.415Z,14.20
2023-01-21T17:53:53.921Z,14.27
2023-01-21T17:56:41.435Z,14.60
2023-01-21T17:59:41.704Z,13.32
2023-01-21T18:02:12.827Z,14.27
2023-01-21T18:04:41.039Z,13.80
2023-01-21T18:07:26.509Z,13.20
2023-01-21T18:09:55.449Z,13.65
2023-01-21T18:12:24.615Z,14.45
2023-01-21T18:14:52.296Z,14.93
2023-01-21T18:17:23.532Z,12.85
2023-01-21T18:19:51.140Z,14.80
2023-01-21T18:22:28.191Z,14.98
2023-01-21T18:24:55.665Z,16.75
2023-01-21T18:27:26.094Z,14.90
2023-01-21T18:29:54.470Z,14.10
2023-01-21T18:32:22.012Z,15.20
2023-01-21T18:34:49.303Z,15.38
2023-01-21T18:37:19.093Z,14.60
2023-01-21T18:39:47.152Z,15.38
2023-01-21T18:42:16.389Z,15.80
2023-01-21T18:44:44.167Z,15.00
2023-01-21T18:47:13.579Z,16.52
2023-01-21T18:49:41.135Z,15.95
2023-01-21T18:52:13.999Z,15.82
2023-01-21T18:54:41.597Z,15.95
2023-01-21T18:57:22.166Z,14.18
2023-01-21T18:59:49.861Z,14.73
2023-01-21T19:02:20.100Z,15.68
2023-01-21T19:04:48.369Z,15.35
2023-01-21T19:07:18.066Z,16.73
2023-01-21T19:09:46.276Z,16.75
2023-01-21T19:12:14.766Z,16.65
2023-01-21T19:14:42.359Z,16.10
2023-01-21T19:17:32.866Z,15.57
2023-01-21T19:20:00.157Z,15.57
2023-01-21T19:22:27.518Z,15.93
2023-01-21T19:24:54.824Z,16.38
2023-01-21T19:27:28.308Z,16.90
2023-01-21T19:29:55.953Z,16.17
2023-01-21T19:32:23.281Z,17.38
2023-01-21T19:34:50.801Z,16.73
2023-01-21T19:37:22.834Z,16.73
2023-01-21T19:39:50.161Z,16.05
2023-01-21T19:42:18.141Z,16.42
2023-01-21T19:44:45.543Z,15.80
2023-01-21T19:47:24.982Z,16.35
2023-01-21T19:49:52.352Z,16.45
2023-01-21T19:52:19.633Z,16.35
2023-01-21T19:54:47.090Z,15.63
2023-01-21T19:57:15.937Z,16.77
2023-01-21T19:59:45.045Z,16.00
2023-01-21T20:02:12.859Z,15.88
2023-01-21T20:04:40.232Z,16.05
2023-01-21T20:07:09.973Z,15.95
2023-01-21T20:09:37.174Z,16.08
2023-01-21T20:12:06.709Z,14.38
2023-01-21T20:14:34.048Z,14.02
2023-01-21T20:17:03.038Z,14.05
2023-01-21T20:19:30.373Z,15.05
2023-01-21T20:22:02.842Z,14.13
2023-01-21T20:24:34.088Z,14.98
2023-01-21T20:27:05.293Z,15.45
2023-01-21T20:29:34.086Z,14.52
2023-01-21T20:32:01.378Z,15.98
2023-01-21T20:34:31.532Z,14.73
2023-01-21T20:36:59.493Z,16.05
2023-01-21T20:39:26.802Z,14.30
2023-01-21T20:41:54.010Z,14.00
2023-01-21T20:44:21.925Z,15.35
2023-01-21T20:46:49.280Z,14.65
2023-01-21T20:49:16.642Z,16.77
2023-01-21T20:51:43.913Z,15.32
2023-01-21T20:54:11.980Z,15.27
2023-01-21T20:56:39.336Z,16.48
2023-01-21T20:59:06.635Z,15.52
2023-01-21T21:01:35.061Z,15.93
2023-01-21T21:04:02.649Z,14.63
2023-01-21T21:06:30.039Z,15.18
2023-01-21T21:08:58.002Z,14.57
2023-01-21T21:11:25.539Z,13.88
2023-01-21T21:13:52.963Z,14.00
2023-01-21T21:16:25.161Z,12.80
2023-01-21T21:18:52.560Z,15.20
2023-01-21T21:21:23.341Z,15.48
2023-01-21T21:23:52.530Z,15.05
2023-01-21T21:26:25.413Z,12.68
2023-01-21T21:29:00.255Z,14.10
2023-01-21T21:31:32.999Z,14.65
2023-01-21T21:34:00.380Z,12.82
2023-01-21T21:36:27.695Z,13.77
2023-01-21T21:38:57.708Z,14.98
2023-01-21T21:41:44.294Z,13.18
2023-01-21T21:44:12.425Z,14.27
2023-01-21T21:46:58.794Z,12.75
2023-01-21T21:49:26.338Z,13.68
2023-01-21T21:51:53.664Z,14.02
2023-01-21T21:54:21.267Z,13.52
2023-01-21T21:56:48.668Z,13.50
2023-01-21T21:59:16.211Z,12.73
2023-01-21T22:01:44.475Z,12.43
2023-01-21T22:04:12.162Z,12.68
2023-01-21T22:06:39.918Z,13.23
2023-01-21T22:09:07.954Z,13.32
2023-01-21T22:11:35.315Z,13.43
2023-01-21T22:14:05.825Z,13.30
2023-01-21T22:16:33.887Z,13.73
2023-01-21T22:19:01.646Z,12.68
2023-01-21T22:21:34.537Z,12.32
2023-01-21T22:24:02.986Z,12.65
2023-01-21T22:26:30.597Z,12.70
2023-01-21T22:28:57.993Z,12.13
2023-01-21T22:31:28.419Z,12.80
2023-01-21T22:33:56.274Z,12.82
2023-01-21T22:36:25.993Z,12.45
2023-01-21T22:38:54.164Z,12.23
2023-01-21T22:41:22.955Z,12.45
2023-01-21T22:43:51.341Z,13.02
2023-01-21T22:46:22.324Z,11.73
2023-01-21T22:48:50.046Z,13.52
2023-01-21T22:51:19.604Z,12.48
2023-01-21T22:53:47.843Z,12.75
2023-01-21T22:56:17.186Z,12.25
2023-01-21T22:58:44.944Z,11.90
2023-01-21T23:01:22.920Z,11.60
2023-01-21T23:03:50.674Z,11.40
2023-01-21T23:06:18.698Z,12.63
2023-01-21T23:08:46.359Z,11.57
2023-01-21T23:11:15.841Z,10.93
2023-01-21T23:13:43.745Z,11.40
2023-01-21T23:16:16.452Z,11.07
2023-01-21T23:18:43.928Z,11.75
2023-01-21T23:21:15.371Z,11.70
2023-01-21T23:23:42.859Z,11.85
2023-01-21T23:26:11.316Z,11.43
2023-01-21T23:28:38.716Z,13.00
2023-01-21T23:31:12.349Z,11.23
2023-01-21T23:33:42.902Z,11.73
2023-01-21T23:36:13.754Z,11.60
2023-01-21T23:38:41.861Z,11.60
2023-01-21T23:41:13.922Z,11.60
2023-01-21T23:43:41.351Z,12.20
2023-01-21T23:46:11.697Z,11.23
2023-01-21T23:48:39.396Z,12.88
2023-01-21T23:51:08.791Z,11.45
2023-01-21T23:53:36.161Z,12.07
2023-01-21T23:56:23.994Z,11.35
2023-01-21T23:58:51.960Z,11.23
